Аэропорт: Аулие-Ата. Тараз

ICAO: UADD

METAR:
2021-01-27 02:30:00
UADD 270230Z 13001MPS 2400 BR SCT003 OVC046 M09/M10 Q1027 R13/890150 NOSIG RMK QBB110 MT OBSC QFE713/0951
METAR:
2021-01-26 23:00:00
TAF UADD 262300Z 2700/2709 22005MPS 3100 BR BKN005 OVC100 TEMPO 2700/2705 0500 FZFG VV002